createdAt,value
2023-04-18T00:03:15.164Z,5.50
2023-04-18T00:11:11.611Z,7.60
2023-04-18T00:15:11.735Z,5.50
2023-04-18T00:19:18.408Z,5.60
2023-04-18T00:23:14.121Z,6.00
2023-04-18T00:27:22.387Z,4.90
2023-04-18T00:31:20.451Z,4.70
2023-04-18T00:35:15.843Z,5.80
2023-04-18T00:39:08.255Z,7.00
2023-04-18T00:43:16.426Z,6.00
2023-04-18T00:47:15.642Z,4.10
2023-04-18T00:51:20.376Z,5.40
2023-04-18T00:55:10.228Z,6.00
2023-04-18T00:59:11.736Z,4.60
2023-04-18T01:07:05.571Z,7.20
2023-04-18T01:11:14.832Z,4.80
2023-04-18T01:15:24.092Z,4.60
2023-04-18T01:19:23.117Z,5.80
2023-04-18T01:23:32.019Z,4.70
2023-04-18T01:27:40.172Z,5.40
2023-04-18T01:31:48.453Z,4.20
2023-04-18T01:35:56.583Z,4.10
2023-04-18T01:40:11.841Z,4.40
2023-04-18T01:44:20.143Z,4.00
2023-04-18T01:48:28.321Z,5.10
2023-04-18T01:52:36.455Z,5.80
2023-04-18T01:56:14.622Z,6.90
2023-04-18T01:59:39.267Z,6.60
2023-04-18T02:03:17.856Z,6.20
2023-04-18T02:07:26.110Z,8.30
2023-04-18T02:11:17.235Z,7.00
2023-04-18T02:15:25.370Z,6.70
2023-04-18T02:19:33.544Z,9.00
2023-04-18T02:23:41.662Z,6.60
2023-04-18T02:27:49.874Z,5.70
2023-04-18T02:31:56.791Z,4.00
2023-04-18T02:36:05.149Z,4.70
2023-04-18T02:39:55.877Z,5.80
2023-04-18T02:44:04.048Z,5.40
2023-04-18T02:47:54.577Z,5.50
2023-04-18T02:52:04.244Z,7.30
2023-04-18T02:56:12.390Z,6.20
2023-04-18T03:00:33.097Z,6.30
2023-04-18T03:04:56.146Z,6.20
2023-04-18T03:08:47.293Z,5.40
2023-04-18T03:12:45.636Z,4.60
2023-04-18T03:16:55.208Z,6.00
2023-04-18T03:21:03.953Z,6.00
2023-04-18T03:24:52.128Z,8.60
2023-04-18T03:29:00.392Z,6.30
2023-04-18T03:33:07.218Z,8.60
2023-04-18T03:37:15.418Z,5.50
2023-04-18T03:41:23.588Z,4.70
2023-04-18T03:45:25.813Z,9.30
2023-04-18T03:49:34.067Z,6.60
2023-04-18T03:53:24.058Z,5.00
2023-04-18T03:57:32.237Z,5.10
2023-04-18T04:01:34.325Z,5.80
2023-04-18T04:05:42.647Z,8.50
2023-04-18T04:12:36.687Z,7.10
2023-04-18T04:16:13.696Z,4.40
2023-04-18T04:19:49.170Z,5.80
2023-04-18T04:23:40.202Z,6.40
2023-04-18T04:27:06.995Z,5.40
2023-04-18T04:30:43.638Z,8.30
2023-04-18T04:33:33.361Z,8.70
2023-04-18T04:36:33.160Z,6.30
2023-04-18T04:39:23.310Z,6.80
2023-04-18T04:43:29.040Z,6.30
2023-04-18T04:47:28.397Z,6.10
2023-04-18T04:50:47.007Z,8.40
2023-04-18T04:54:20.865Z,6.90
2023-04-18T04:58:04.057Z,4.40
2023-04-18T05:01:41.582Z,5.70
2023-04-18T05:04:44.216Z,7.90
2023-04-18T05:08:19.264Z,7.60
2023-04-18T05:11:30.522Z,7.60
2023-04-18T05:14:23.498Z,6.70
2023-04-18T05:16:56.725Z,6.80
2023-04-18T05:20:14.708Z,7.40
2023-04-18T05:22:59.338Z,9.60
2023-04-18T05:25:57.584Z,6.80
2023-04-18T05:28:48.007Z,5.80
2023-04-18T05:32:25.965Z,8.10
2023-04-18T05:35:47.414Z,6.40
2023-04-18T05:38:49.123Z,5.50
2023-04-18T05:42:37.419Z,6.90
2023-04-18T05:48:21.428Z,5.70
2023-04-18T05:52:12.013Z,5.50
2023-04-18T05:55:48.905Z,4.10
2023-04-18T06:01:51.698Z,6.60
2023-04-18T06:04:22.268Z,5.50
2023-04-18T06:07:16.336Z,4.40
2023-04-18T06:10:17.101Z,5.00
2023-04-18T06:12:44.274Z,5.80
2023-04-18T06:15:31.935Z,6.30
2023-04-18T06:18:30.287Z,4.90
2023-04-18T06:21:31.469Z,5.70
2023-04-18T06:24:09.455Z,8.60
2023-04-18T06:27:47.344Z,6.50
2023-04-18T06:30:22.025Z,6.30
2023-04-18T06:33:11.229Z,5.20
2023-04-18T06:35:48.857Z,4.10
2023-04-18T06:38:35.104Z,5.80
2023-04-18T06:41:05.124Z,6.20
2023-04-18T06:43:32.650Z,5.10
2023-04-18T06:46:21.577Z,4.90
2023-04-18T06:48:59.798Z,5.80
2023-04-18T06:51:30.082Z,4.40
2023-04-18T06:54:27.457Z,5.50
2023-04-18T06:56:54.747Z,3.70
2023-04-18T07:00:02.643Z,4.30
2023-04-18T07:03:13.597Z,5.20
2023-04-18T07:05:44.318Z,5.90
2023-04-18T07:11:15.814Z,5.20
2023-04-18T07:13:43.444Z,4.80
2023-04-18T07:16:50.123Z,3.90
2023-04-18T07:19:45.497Z,3.90
2023-04-18T07:22:38.689Z,4.00
2023-04-18T07:25:56.361Z,5.00
2023-04-18T07:29:14.403Z,5.30
2023-04-18T07:31:53.577Z,7.10
2023-04-18T07:34:37.309Z,4.90
2023-04-18T07:37:04.856Z,7.90
2023-04-18T07:39:35.968Z,3.70
2023-04-18T07:42:12.113Z,3.60
2023-04-18T07:45:17.913Z,4.10
2023-04-18T07:47:50.964Z,4.70
2023-04-18T07:50:57.610Z,3.80
2023-04-18T07:53:45.021Z,3.60
2023-04-18T07:56:35.326Z,4.70
2023-04-18T07:59:18.123Z,4.00
2023-04-18T08:01:45.932Z,6.10
2023-04-18T08:04:14.772Z,4.00
2023-04-18T08:07:37.184Z,3.70
2023-04-18T08:10:25.328Z,4.80
2023-04-18T08:13:26.148Z,4.00
2023-04-18T08:15:53.609Z,4.40
2023-04-18T08:18:44.843Z,3.90
2023-04-18T08:21:31.332Z,6.30
2023-04-18T08:24:01.418Z,6.20
2023-04-18T08:26:34.534Z,4.40
2023-04-18T08:29:34.615Z,6.00
2023-04-18T08:32:20.764Z,6.30
2023-04-18T08:34:48.382Z,7.30
2023-04-18T08:37:28.555Z,5.50
2023-04-18T08:40:39.499Z,6.30
2023-04-18T08:43:09.483Z,4.80
2023-04-18T08:46:12.752Z,9.20
2023-04-18T08:48:40.117Z,5.50
2023-04-18T08:51:07.958Z,6.50
2023-04-18T08:54:38.825Z,6.00
2023-04-18T08:58:37.623Z,8.70
2023-04-18T09:01:25.267Z,7.10
2023-04-18T09:04:03.584Z,9.10
2023-04-18T09:06:36.453Z,7.10
2023-04-18T09:09:37.357Z,5.40
2023-04-18T09:12:13.609Z,6.70
2023-04-18T09:15:16.623Z,9.90
2023-04-18T09:18:20.107Z,4.50
2023-04-18T09:21:19.723Z,4.80
2023-04-18T09:24:27.234Z,4.80
2023-04-18T09:26:59.828Z,7.30
2023-04-18T09:30:08.615Z,4.70
2023-04-18T09:32:57.466Z,7.50
2023-04-18T09:35:34.845Z,6.30
2023-04-18T09:38:14.911Z,5.90
2023-04-18T09:41:09.518Z,4.50
2023-04-18T09:43:48.483Z,5.70
2023-04-18T09:46:28.164Z,7.40
2023-04-18T09:48:57.967Z,4.20
2023-04-18T09:51:25.127Z,7.00
2023-04-18T09:53:55.299Z,7.80
2023-04-18T09:56:41.124Z,6.10
2023-04-18T09:59:10.035Z,8.20
2023-04-18T10:01:37.684Z,6.10
2023-04-18T10:04:17.922Z,7.10
2023-04-18T10:06:48.633Z,6.60
2023-04-18T10:09:16.585Z,6.30
2023-04-18T10:11:43.753Z,6.00
2023-04-18T10:14:13.042Z,8.00
2023-04-18T10:16:40.809Z,5.00
2023-04-18T10:19:25.428Z,4.70
2023-04-18T10:22:12.655Z,5.10
2023-04-18T10:24:57.341Z,7.30
2023-04-18T10:28:08.177Z,5.90
2023-04-18T10:30:44.463Z,5.60
2023-04-18T10:33:37.117Z,7.60
2023-04-18T10:36:09.321Z,6.70
2023-04-18T10:39:32.005Z,6.80
2023-04-18T10:42:20.509Z,6.10
2023-04-18T10:45:19.633Z,6.70
2023-04-18T10:51:40.768Z,5.90
2023-04-18T10:54:12.192Z,5.90
2023-04-18T10:56:58.355Z,8.00
2023-04-18T10:59:31.171Z,3.80
2023-04-18T11:02:24.600Z,7.80
2023-04-18T11:07:56.341Z,8.60
2023-04-18T11:10:26.353Z,7.40
2023-04-18T11:12:54.784Z,6.60
2023-04-18T11:15:45.286Z,9.30
2023-04-18T11:18:16.130Z,5.00
2023-04-18T11:21:06.496Z,6.00
2023-04-18T11:23:39.726Z,4.50
2023-04-18T11:26:07.674Z,6.90
2023-04-18T11:28:48.051Z,4.70
2023-04-18T11:32:14.447Z,5.20
2023-04-18T11:34:55.261Z,5.90
2023-04-18T11:37:50.170Z,7.90
2023-04-18T11:40:46.461Z,8.30
2023-04-18T11:43:24.608Z,6.60
2023-04-18T11:46:18.699Z,9.40
2023-04-18T11:49:06.600Z,5.50
2023-04-18T11:51:50.200Z,4.80
2023-04-18T11:55:08.862Z,7.00
2023-04-18T11:57:38.802Z,3.70
2023-04-18T12:00:43.789Z,4.90
2023-04-18T12:03:37.864Z,6.60
2023-04-18T12:06:29.337Z,6.30
2023-04-18T12:09:30.952Z,3.80
2023-04-18T12:12:41.642Z,5.20
2023-04-18T12:15:34.902Z,6.20
2023-04-18T12:18:48.521Z,5.40
2023-04-18T12:21:18.514Z,8.90
2023-04-18T12:24:16.720Z,11.80
2023-04-18T12:26:47.407Z,6.10
2023-04-18T12:29:14.795Z,4.20
2023-04-18T12:32:11.195Z,7.00
2023-04-18T12:34:39.629Z,5.70
2023-04-18T12:37:49.665Z,6.20
2023-04-18T12:40:39.245Z,5.20
2023-04-18T12:43:11.329Z,7.20
2023-04-18T12:45:59.550Z,5.80
2023-04-18T12:48:32.078Z,5.00
2023-04-18T12:51:39.715Z,5.00
2023-04-18T12:54:38.627Z,6.80
2023-04-18T12:57:31.692Z,6.10
2023-04-18T13:00:20.335Z,5.90
2023-04-18T13:03:15.545Z,7.50
2023-04-18T13:06:24.537Z,10.50
2023-04-18T13:09:21.303Z,9.70
2023-04-18T13:11:58.740Z,8.50
2023-04-18T13:14:26.729Z,7.20
2023-04-18T13:16:54.169Z,6.50
2023-04-18T13:19:44.734Z,7.60
2023-04-18T13:22:24.040Z,10.40
2023-04-18T13:25:00.542Z,6.00
2023-04-18T13:28:01.128Z,5.60
2023-04-18T13:30:32.161Z,10.80
2023-04-18T13:33:02.604Z,7.90
2023-04-18T13:35:32.815Z,9.30
2023-04-18T13:38:04.349Z,6.30
2023-04-18T13:41:12.348Z,5.10
2023-04-18T13:44:00.283Z,5.60
2023-04-18T13:46:49.049Z,4.80
2023-04-18T13:50:01.673Z,6.80
2023-04-18T13:53:20.984Z,8.20
2023-04-18T13:56:08.482Z,3.40
2023-04-18T13:58:41.219Z,7.60
2023-04-18T14:01:41.358Z,4.20
2023-04-18T14:04:35.533Z,6.60
2023-04-18T14:07:24.093Z,4.60
2023-04-18T14:10:05.931Z,7.60
2023-04-18T14:15:23.161Z,5.20
2023-04-18T14:17:58.206Z,6.90
2023-04-18T14:20:58.536Z,7.10
2023-04-18T14:23:59.211Z,4.90
2023-04-18T14:26:46.031Z,4.10
2023-04-18T14:29:30.592Z,3.00
2023-04-18T14:31:58.434Z,9.50
2023-04-18T14:34:31.136Z,5.00
2023-04-18T14:37:00.246Z,7.70
2023-04-18T14:39:56.182Z,5.00
2023-04-18T14:42:43.922Z,9.60
2023-04-18T14:45:36.875Z,7.90
2023-04-18T14:48:10.352Z,6.60
2023-04-18T14:51:08.986Z,7.80
2023-04-18T14:53:38.409Z,3.10
2023-04-18T14:56:24.574Z,6.60
2023-04-18T14:59:02.809Z,8.20
2023-04-18T15:01:33.019Z,5.20
2023-04-18T15:04:04.581Z,5.90
2023-04-18T15:06:36.243Z,5.90
2023-04-18T15:09:27.082Z,13.60
2023-04-18T15:12:31.332Z,10.90
2023-04-18T15:15:13.198Z,4.10
2023-04-18T15:18:00.951Z,7.10
2023-04-18T15:20:54.114Z,8.10
2023-04-18T15:23:21.525Z,4.20
2023-04-18T15:25:49.064Z,5.60
2023-04-18T15:28:19.319Z,8.90
2023-04-18T15:31:00.039Z,7.20
2023-04-18T15:33:54.758Z,6.70
2023-04-18T15:36:24.895Z,9.90
2023-04-18T15:38:59.589Z,8.00
2023-04-18T15:41:33.650Z,7.20
2023-04-18T15:44:10.098Z,7.30
2023-04-18T15:46:37.415Z,6.10
2023-04-18T15:49:07.416Z,7.40
2023-04-18T15:52:06.909Z,7.30
2023-04-18T15:54:35.270Z,8.10
2023-04-18T15:57:03.135Z,5.60
2023-04-18T15:59:36.598Z,8.40
2023-04-18T16:02:04.114Z,7.60
2023-04-18T16:04:33.863Z,5.20
2023-04-18T16:07:08.368Z,4.10
2023-04-18T16:09:38.712Z,9.50
2023-04-18T16:12:11.156Z,5.50
2023-04-18T16:14:57.856Z,6.10
2023-04-18T16:17:28.082Z,7.00
2023-04-18T16:20:15.649Z,7.20
2023-04-18T16:22:51.430Z,6.70
2023-04-18T16:25:21.389Z,5.70
2023-04-18T16:28:30.072Z,5.90
2023-04-18T16:30:59.518Z,8.70
2023-04-18T16:33:34.297Z,7.90
2023-04-18T16:36:34.737Z,15.70
2023-04-18T16:39:04.802Z,7.50
2023-04-18T16:41:38.844Z,6.70
2023-04-18T16:44:12.456Z,7.50
2023-04-18T16:47:05.151Z,9.80
2023-04-18T16:50:01.996Z,9.00
2023-04-18T16:52:44.930Z,7.00
2023-04-18T16:55:19.349Z,10.10
2023-04-18T16:57:56.884Z,9.50
2023-04-18T17:00:24.285Z,11.10
2023-04-18T17:02:55.935Z,9.00
2023-04-18T17:05:39.392Z,5.50
2023-04-18T17:08:09.375Z,8.50
2023-04-18T17:10:42.590Z,9.30
2023-04-18T17:13:46.964Z,10.70
2023-04-18T17:16:26.399Z,9.30
2023-04-18T17:18:56.956Z,8.70
2023-04-18T17:21:24.480Z,10.50
2023-04-18T17:23:57.183Z,8.50
2023-04-18T17:26:27.845Z,10.40
2023-04-18T17:28:58.232Z,5.50
2023-04-18T17:31:25.718Z,6.40
2023-04-18T17:34:13.166Z,8.70
2023-04-18T17:36:46.705Z,10.80
2023-04-18T17:39:16.445Z,12.40
2023-04-18T17:41:50.736Z,17.70
2023-04-18T17:44:23.767Z,18.40
2023-04-18T17:46:58.747Z,55.50
2023-04-18T17:49:30.877Z,28.50
2023-04-18T17:52:01.476Z,38.10
2023-04-18T17:54:28.806Z,25.20
2023-04-18T17:56:56.806Z,29.80
2023-04-18T17:59:24.550Z,25.70
2023-04-18T18:01:51.807Z,22.50
2023-04-18T18:04:20.058Z,13.10
2023-04-18T18:06:54.986Z,8.50
2023-04-18T18:09:25.052Z,12.80
2023-04-18T18:11:56.020Z,10.20
2023-04-18T18:14:29.015Z,17.40
2023-04-18T18:16:56.679Z,20.00
2023-04-18T18:19:29.285Z,20.60
2023-04-18T18:21:56.680Z,22.30
2023-04-18T18:24:27.555Z,11.60
2023-04-18T18:27:44.180Z,11.50
2023-04-18T18:30:20.498Z,12.50
2023-04-18T18:32:54.322Z,14.50
2023-04-18T18:35:31.783Z,16.90
2023-04-18T18:38:07.336Z,21.60
2023-04-18T18:40:37.107Z,14.80
2023-04-18T18:43:16.510Z,16.60
2023-04-18T18:45:51.233Z,22.40
2023-04-18T18:48:23.383Z,45.30
2023-04-18T18:50:51.474Z,27.80
2023-04-18T18:53:19.060Z,15.60
2023-04-18T18:56:08.726Z,16.70
2023-04-18T18:58:39.177Z,10.20
2023-04-18T19:01:06.821Z,13.50
2023-04-18T19:03:34.899Z,7.40
2023-04-18T19:06:04.291Z,14.50
2023-04-18T19:08:39.167Z,9.10
2023-04-18T19:11:19.294Z,7.50
2023-04-18T19:13:57.881Z,9.00
2023-04-18T19:16:35.949Z,8.20
2023-04-18T19:19:03.705Z,7.40
2023-04-18T19:21:33.328Z,12.00
2023-04-18T19:24:00.513Z,19.10
2023-04-18T19:26:27.741Z,24.30
2023-04-18T19:28:55.316Z,17.90
2023-04-18T19:31:22.843Z,15.30
2023-04-18T19:33:58.822Z,22.30
2023-04-18T19:36:54.806Z,20.50
2023-04-18T19:40:14.284Z,25.20
2023-04-18T19:42:53.885Z,11.20
2023-04-18T19:45:38.952Z,10.40
2023-04-18T19:48:24.443Z,11.60
2023-04-18T19:51:02.902Z,20.20
2023-04-18T19:53:41.592Z,13.90
2023-04-18T19:56:13.332Z,13.40
2023-04-18T19:59:13.053Z,15.10
2023-04-18T20:02:01.434Z,12.40
2023-04-18T20:04:42.029Z,11.70
2023-04-18T20:07:15.126Z,11.40
2023-04-18T20:09:44.688Z,15.70
2023-04-18T20:12:55.375Z,18.80
2023-04-18T20:15:46.067Z,35.60
2023-04-18T20:18:25.610Z,22.80
2023-04-18T20:21:58.476Z,12.90
2023-04-18T20:24:49.197Z,16.40
2023-04-18T20:27:24.652Z,16.30
2023-04-18T20:29:52.095Z,15.00
2023-04-18T20:32:33.390Z,15.40
2023-04-18T20:35:04.499Z,10.00
2023-04-18T20:38:25.966Z,10.30
2023-04-18T20:41:21.285Z,8.20
2023-04-18T20:44:11.058Z,8.60
2023-04-18T20:47:32.726Z,11.70
2023-04-18T20:51:06.231Z,10.50
2023-04-18T20:54:13.670Z,8.80
2023-04-18T20:57:51.682Z,8.30
2023-04-18T21:01:42.268Z,10.40
2023-04-18T21:05:21.503Z,11.10
2023-04-18T21:08:17.562Z,16.20
2023-04-18T21:12:05.744Z,13.10
2023-04-18T21:16:07.038Z,13.70
2023-04-18T21:19:41.320Z,8.90
2023-04-18T21:23:32.263Z,11.80
2023-04-18T21:27:40.364Z,9.80
2023-04-18T21:31:23.060Z,11.60
2023-04-18T21:34:36.781Z,8.40
2023-04-18T21:38:37.478Z,10.50
2023-04-18T21:42:47.764Z,14.00
2023-04-18T21:46:41.157Z,11.40
2023-04-18T21:50:50.237Z,8.80
2023-04-18T21:54:14.222Z,11.60
2023-04-18T21:58:22.492Z,7.90
2023-04-18T22:02:10.620Z,10.80
2023-04-18T22:05:33.866Z,11.10
2023-04-18T22:09:08.800Z,13.90
2023-04-18T22:12:32.476Z,13.00
2023-04-18T22:16:09.282Z,10.60
2023-04-18T22:20:10.537Z,15.40
2023-04-18T22:23:59.485Z,10.40
2023-04-18T22:27:26.706Z,8.80
2023-04-18T22:31:07.450Z,7.70
2023-04-18T22:34:37.088Z,8.00
2023-04-18T22:38:43.882Z,12.20
2023-04-18T22:42:21.923Z,10.00
2023-04-18T22:46:22.097Z,13.80
2023-04-18T22:50:23.752Z,17.00
2023-04-18T22:54:32.886Z,20.60
2023-04-18T22:58:23.992Z,19.70
2023-04-18T23:02:20.915Z,18.30
2023-04-18T23:06:29.416Z,11.40
2023-04-18T23:10:11.180Z,11.70
2023-04-18T23:14:19.313Z,9.50
2023-04-18T23:18:17.237Z,8.40
2023-04-18T23:22:25.475Z,9.10
2023-04-18T23:26:33.714Z,5.90
2023-04-18T23:30:32.597Z,8.00
2023-04-18T23:34:00.609Z,7.90
2023-04-18T23:38:17.237Z,8.20
2023-04-18T23:42:04.167Z,13.50
2023-04-18T23:46:12.337Z,11.70
2023-04-18T23:50:00.448Z,10.90
2023-04-18T23:53:40.556Z,10.90
2023-04-18T23:57:31.682Z,10.00
